createdAt,value
2022-09-04T00:00:59.782Z,0.00
2022-09-04T00:01:59.771Z,0.00
2022-09-04T00:02:59.781Z,0.00
2022-09-04T00:03:59.794Z,0.00
2022-09-04T00:04:59.891Z,0.00
2022-09-04T00:05:59.723Z,0.00
2022-09-04T00:06:59.711Z,0.00
2022-09-04T00:07:59.711Z,0.00
2022-09-04T00:08:59.709Z,0.00
2022-09-04T00:09:59.684Z,0.00
2022-09-04T00:10:59.674Z,0.00
2022-09-04T00:11:59.654Z,0.00
2022-09-04T00:12:59.670Z,0.00
2022-09-04T00:13:59.655Z,0.00
2022-09-04T00:14:59.622Z,0.00
2022-09-04T00:15:59.615Z,0.00
2022-09-04T00:16:59.679Z,0.00
2022-09-04T00:17:59.625Z,0.00
2022-09-04T00:18:59.665Z,0.00
2022-09-04T00:19:59.585Z,0.00
2022-09-04T00:20:59.554Z,0.00
2022-09-04T00:21:59.544Z,0.00
2022-09-04T00:22:59.536Z,0.00
2022-09-04T00:23:59.556Z,0.00
2022-09-04T00:24:59.505Z,0.00
2022-09-04T00:25:59.496Z,0.00
2022-09-04T00:26:59.485Z,0.00
2022-09-04T00:27:59.485Z,0.00
2022-09-04T00:28:59.468Z,0.00
2022-09-04T00:29:59.477Z,0.00
2022-09-04T00:30:59.495Z,0.00
2022-09-04T00:31:59.466Z,0.00
2022-09-04T00:32:59.417Z,0.00
2022-09-04T00:33:59.441Z,0.00
2022-09-04T00:34:59.398Z,0.00
2022-09-04T00:35:59.388Z,0.00
2022-09-04T00:36:59.377Z,0.00
2022-09-04T00:37:59.382Z,0.00
2022-09-04T00:39:00.107Z,0.00
2022-09-04T00:39:59.416Z,0.00
2022-09-04T00:40:59.331Z,0.00
2022-09-04T00:41:59.330Z,0.00
2022-09-04T00:42:59.308Z,0.00
2022-09-04T00:43:59.309Z,0.00
2022-09-04T00:44:59.308Z,0.00
2022-09-04T00:45:59.397Z,0.00
2022-09-04T00:46:59.273Z,0.00
2022-09-04T00:47:59.261Z,0.00
2022-09-04T00:48:59.245Z,0.00
2022-09-04T00:49:59.259Z,0.00
2022-09-04T00:50:59.220Z,0.00
2022-09-04T00:51:59.212Z,0.00
2022-09-04T00:52:59.452Z,0.00
2022-09-04T00:53:59.195Z,0.00
2022-09-04T00:54:59.193Z,0.00
2022-09-04T00:55:59.188Z,0.00
2022-09-04T00:56:59.155Z,0.00
2022-09-04T00:57:59.143Z,0.00
2022-09-04T00:58:59.151Z,0.00
2022-09-04T00:59:59.128Z,0.00
2022-09-04T01:00:59.274Z,0.00
2022-09-04T01:01:59.225Z,0.00
2022-09-04T01:02:59.862Z,0.00
2022-09-04T01:03:59.084Z,0.00
2022-09-04T01:04:59.063Z,0.00
2022-09-04T01:05:59.054Z,0.00
2022-09-04T01:06:59.063Z,0.00
2022-09-04T01:07:59.033Z,0.00
2022-09-04T01:08:59.016Z,0.00
2022-09-04T01:09:59.015Z,0.00
2022-09-04T01:10:58.997Z,0.00
2022-09-04T01:11:59.005Z,0.00
2022-09-04T01:12:58.974Z,0.00
2022-09-04T01:13:59.168Z,0.00
2022-09-04T01:14:58.963Z,0.00
2022-09-04T01:15:59.007Z,0.00
2022-09-04T01:16:58.958Z,0.00
2022-09-04T01:17:58.925Z,0.00
2022-09-04T01:18:58.905Z,0.00
2022-09-04T01:19:58.902Z,0.00
2022-09-04T01:20:58.885Z,0.00
2022-09-04T01:21:58.904Z,0.00
2022-09-04T01:22:58.865Z,0.00
2022-09-04T01:23:58.855Z,0.00
2022-09-04T01:24:58.846Z,0.00
2022-09-04T01:25:58.847Z,0.00
2022-09-04T01:26:58.836Z,0.00
2022-09-04T01:27:58.808Z,0.00
2022-09-04T01:28:58.797Z,0.00
2022-09-04T01:29:58.789Z,0.00
2022-09-04T01:30:58.770Z,0.00
2022-09-04T01:31:58.839Z,0.00
2022-09-04T01:32:58.754Z,0.00
2022-09-04T01:33:58.739Z,0.00
2022-09-04T01:34:58.731Z,0.00
2022-09-04T01:35:58.730Z,0.00
2022-09-04T01:36:58.744Z,0.00
2022-09-04T01:37:58.699Z,0.00
2022-09-04T01:38:58.692Z,0.00
2022-09-04T01:39:58.711Z,0.00
2022-09-04T01:40:58.682Z,0.00
2022-09-04T01:41:58.657Z,0.00
2022-09-04T01:42:58.639Z,0.00
2022-09-04T01:43:58.629Z,0.00
2022-09-04T01:44:58.613Z,0.00
2022-09-04T01:45:58.698Z,0.00
2022-09-04T01:46:58.618Z,0.00
2022-09-04T01:47:58.597Z,0.00
2022-09-04T01:48:58.571Z,0.00
2022-09-04T01:49:58.569Z,0.00
2022-09-04T01:50:58.549Z,0.00
2022-09-04T01:51:58.561Z,0.00
2022-09-04T01:52:58.534Z,0.00
2022-09-04T01:53:58.521Z,0.00
2022-09-04T01:54:58.527Z,0.00
2022-09-04T01:55:58.495Z,0.00
2022-09-04T01:56:58.511Z,0.00
2022-09-04T01:57:58.472Z,0.00
2022-09-04T01:58:58.462Z,0.00
2022-09-04T01:59:59.434Z,0.00
2022-09-04T02:00:58.467Z,0.00
2022-09-04T02:01:59.381Z,0.00
2022-09-04T02:02:58.419Z,0.00
2022-09-04T02:03:58.407Z,0.00
2022-09-04T02:04:58.395Z,0.00
2022-09-04T02:05:58.385Z,0.00
2022-09-04T02:06:58.393Z,0.00
2022-09-04T02:07:58.373Z,0.00
2022-09-04T02:08:58.346Z,0.00
2022-09-04T02:09:58.345Z,0.00
2022-09-04T02:10:58.327Z,0.00
2022-09-04T02:11:58.343Z,0.00
2022-09-04T02:12:58.307Z,0.00
2022-09-04T02:13:58.295Z,0.00
2022-09-04T02:14:58.286Z,0.00
2022-09-04T02:15:58.320Z,0.00
2022-09-04T02:16:58.285Z,0.00
2022-09-04T02:17:58.258Z,0.00
2022-09-04T02:18:58.705Z,0.00
2022-09-04T02:19:58.235Z,0.00
2022-09-04T02:20:58.216Z,0.00
2022-09-04T02:21:58.228Z,0.00
2022-09-04T02:22:58.198Z,0.00
2022-09-04T02:23:58.189Z,0.00
2022-09-04T02:24:58.175Z,0.00
2022-09-04T02:25:58.165Z,0.00
2022-09-04T02:26:58.156Z,0.00
2022-09-04T02:27:58.979Z,0.00
2022-09-04T02:28:58.159Z,0.00
2022-09-04T02:29:58.120Z,0.00
2022-09-04T02:30:58.109Z,0.00
2022-09-04T02:31:58.207Z,0.00
2022-09-04T02:32:58.086Z,0.00
2022-09-04T02:33:58.099Z,0.00
2022-09-04T02:34:58.060Z,0.00
2022-09-04T02:35:58.058Z,0.00
2022-09-04T02:36:58.039Z,0.00
2022-09-04T02:37:58.028Z,0.00
2022-09-04T02:38:58.041Z,0.00
2022-09-04T02:39:58.037Z,0.00
2022-09-04T02:40:58.021Z,0.00
2022-09-04T02:41:57.982Z,0.00
2022-09-04T02:42:57.980Z,0.00
2022-09-04T02:43:57.963Z,0.00
2022-09-04T02:44:57.950Z,0.00
2022-09-04T02:45:57.961Z,0.00
2022-09-04T02:46:57.983Z,0.00
2022-09-04T02:47:57.912Z,0.00
2022-09-04T02:48:57.905Z,0.00
2022-09-04T02:49:57.892Z,0.00
2022-09-04T02:50:57.914Z,0.00
2022-09-04T02:51:57.873Z,0.00
2022-09-04T02:52:57.863Z,0.00
2022-09-04T02:53:57.854Z,0.00
2022-09-04T02:54:57.841Z,0.00
2022-09-04T02:55:57.845Z,0.00
2022-09-04T02:56:57.854Z,0.00
2022-09-04T02:57:57.812Z,0.00
2022-09-04T02:58:57.797Z,0.00
2022-09-04T02:59:57.804Z,0.00
2022-09-04T03:00:57.866Z,0.00
2022-09-04T03:01:57.831Z,0.00
2022-09-04T03:02:57.755Z,0.00
2022-09-04T03:03:57.735Z,0.00
2022-09-04T03:04:57.725Z,0.00
2022-09-04T03:05:57.721Z,0.00
2022-09-04T03:06:57.733Z,0.00
2022-09-04T03:07:57.693Z,0.00
2022-09-04T03:08:57.684Z,0.00
2022-09-04T03:09:57.667Z,0.00
2022-09-04T03:10:57.666Z,0.00
2022-09-04T03:11:57.668Z,0.00
2022-09-04T03:12:57.643Z,0.00
2022-09-04T03:13:57.626Z,0.00
2022-09-04T03:14:57.616Z,0.00
2022-09-04T03:15:57.685Z,0.00
2022-09-04T03:16:57.620Z,0.00
2022-09-04T03:17:57.578Z,0.00
2022-09-04T03:18:57.576Z,0.00
2022-09-04T03:19:57.556Z,0.00
2022-09-04T03:20:57.546Z,0.00
2022-09-04T03:21:57.556Z,0.00
2022-09-04T03:22:57.536Z,0.00
2022-09-04T03:23:57.516Z,0.00
2022-09-04T03:24:57.509Z,0.00
2022-09-04T03:25:58.238Z,0.00
2022-09-04T03:26:57.506Z,0.00
2022-09-04T03:27:57.469Z,0.00
2022-09-04T03:28:57.459Z,0.00
2022-09-04T03:29:57.449Z,0.00
2022-09-04T03:30:57.438Z,0.00
2022-09-04T03:31:57.450Z,0.00
2022-09-04T03:32:57.415Z,0.00
2022-09-04T03:33:57.409Z,0.00
2022-09-04T03:34:57.391Z,0.00
2022-09-04T03:35:57.388Z,0.00
2022-09-04T03:36:57.372Z,0.00
2022-09-04T03:37:57.390Z,0.00
2022-09-04T03:38:57.361Z,0.00
2022-09-04T03:39:57.368Z,0.00
2022-09-04T03:40:57.321Z,0.00
2022-09-04T03:41:57.318Z,0.00
2022-09-04T03:42:57.329Z,0.00
2022-09-04T03:43:57.291Z,0.00
2022-09-04T03:44:57.302Z,0.00
2022-09-04T03:45:57.272Z,0.00
2022-09-04T03:46:57.288Z,0.00
2022-09-04T03:47:57.271Z,0.00
2022-09-04T03:48:57.230Z,0.00
2022-09-04T03:49:57.230Z,0.00
2022-09-04T03:50:57.212Z,0.00
2022-09-04T03:51:57.213Z,0.00
2022-09-04T03:52:57.211Z,0.00
2022-09-04T03:53:57.201Z,0.00
2022-09-04T03:54:57.171Z,0.00
2022-09-04T03:55:57.163Z,0.00
2022-09-04T03:56:57.145Z,0.00
2022-09-04T03:57:57.160Z,0.00
2022-09-04T03:58:57.124Z,0.00
2022-09-04T03:59:57.134Z,0.00
2022-09-04T04:00:57.310Z,0.00
2022-09-04T04:01:57.094Z,0.00
2022-09-04T04:02:57.144Z,0.00
2022-09-04T04:03:57.076Z,0.00
2022-09-04T04:04:57.075Z,0.00
2022-09-04T04:05:57.055Z,0.00
2022-09-04T04:06:57.034Z,0.00
2022-09-04T04:07:57.026Z,0.00
2022-09-04T04:08:57.183Z,0.00
2022-09-04T04:09:57.004Z,0.00
2022-09-04T04:10:57.014Z,0.00
2022-09-04T04:11:56.987Z,0.00
2022-09-04T04:12:56.965Z,0.00
2022-09-04T04:13:56.956Z,0.00
2022-09-04T04:14:56.975Z,4.00
2022-09-04T04:15:56.973Z,4.00
2022-09-04T04:16:56.955Z,0.00
2022-09-04T04:17:56.995Z,4.00
2022-09-04T04:18:56.903Z,0.00
2022-09-04T04:19:57.087Z,4.00
2022-09-04T04:20:56.902Z,4.00
2022-09-04T04:21:56.921Z,8.00
2022-09-04T04:22:56.859Z,8.00
2022-09-04T04:23:56.863Z,8.00
2022-09-04T04:24:56.878Z,12.00
2022-09-04T04:25:56.847Z,12.00
2022-09-04T04:26:56.838Z,16.00
2022-09-04T04:27:56.808Z,20.00
2022-09-04T04:28:56.787Z,20.00
2022-09-04T04:29:56.785Z,24.00
2022-09-04T04:30:56.818Z,28.00
2022-09-04T04:31:56.779Z,32.00
2022-09-04T04:32:56.739Z,40.00
2022-09-04T04:33:56.738Z,44.00
2022-09-04T04:34:56.726Z,56.00
2022-09-04T04:35:56.708Z,60.00
2022-09-04T04:36:56.728Z,72.00
2022-09-04T04:37:56.697Z,84.00
2022-09-04T04:38:56.676Z,96.00
2022-09-04T04:39:56.705Z,108.00
2022-09-04T04:40:56.650Z,120.00
2022-09-04T04:41:56.669Z,136.00
2022-09-04T04:42:56.630Z,148.00
2022-09-04T04:43:56.625Z,164.00
2022-09-04T04:44:56.611Z,180.00
2022-09-04T04:45:56.601Z,196.00
2022-09-04T04:46:56.655Z,212.00
2022-09-04T04:47:56.579Z,236.00
2022-09-04T04:48:56.565Z,256.00
2022-09-04T04:49:56.552Z,276.00
2022-09-04T04:50:56.542Z,300.00
2022-09-04T04:51:56.559Z,324.00
2022-09-04T04:52:56.521Z,348.00
2022-09-04T04:53:56.521Z,372.00
2022-09-04T04:54:56.492Z,400.00
2022-09-04T04:55:56.490Z,424.00
2022-09-04T04:56:56.483Z,448.00
2022-09-04T04:57:56.491Z,476.00
2022-09-04T04:58:56.491Z,504.00
2022-09-04T04:59:56.442Z,528.00
2022-09-04T05:00:56.434Z,556.00
2022-09-04T05:01:56.628Z,584.00
2022-09-04T05:02:56.462Z,612.00
2022-09-04T05:03:56.399Z,636.00
2022-09-04T05:04:56.391Z,668.00
2022-09-04T05:05:56.373Z,692.00
2022-09-04T05:06:56.393Z,724.00
2022-09-04T05:07:56.382Z,752.00
2022-09-04T05:08:56.364Z,780.00
2022-09-04T05:09:56.363Z,808.00
2022-09-04T05:10:56.322Z,836.00
2022-09-04T05:11:56.343Z,864.00
2022-09-04T05:12:56.321Z,892.00
2022-09-04T05:13:56.313Z,920.00
2022-09-04T05:14:56.272Z,944.00
2022-09-04T05:16:08.842Z,972.00
2022-09-04T05:16:57.313Z,1000.00
2022-09-04T05:17:56.266Z,1024.00
2022-09-04T05:18:56.241Z,1048.00
2022-09-04T05:19:56.223Z,1072.00
2022-09-04T05:20:56.205Z,1096.00
2022-09-04T05:21:56.245Z,1132.00
2022-09-04T05:22:56.183Z,1172.00
2022-09-04T05:23:56.183Z,1208.00
2022-09-04T05:24:56.184Z,1248.00
2022-09-04T05:25:56.194Z,1288.00
2022-09-04T05:26:56.194Z,1332.00
2022-09-04T05:27:56.139Z,1376.00
2022-09-04T05:28:56.116Z,1408.00
2022-09-04T05:29:56.106Z,1440.00
2022-09-04T05:30:56.158Z,1464.00
2022-09-04T05:31:56.147Z,1496.00
2022-09-04T05:32:56.075Z,1524.00
2022-09-04T05:33:56.066Z,1548.00
2022-09-04T05:34:56.057Z,1572.00
2022-09-04T05:35:56.057Z,1596.00
2022-09-04T05:36:56.079Z,1620.00
2022-09-04T05:37:56.018Z,1640.00
2022-09-04T05:38:56.036Z,1664.00
2022-09-04T05:39:56.053Z,1688.00
2022-09-04T05:40:55.986Z,1708.00
2022-09-04T05:41:55.986Z,1728.00
2022-09-04T05:42:55.988Z,1748.00
2022-09-04T05:43:55.956Z,1768.00
2022-09-04T05:44:55.939Z,1788.00
2022-09-04T05:45:55.977Z,1804.00
2022-09-04T05:46:55.917Z,1828.00
2022-09-04T05:47:55.930Z,1844.00
2022-09-04T05:48:55.890Z,1868.00
2022-09-04T05:49:55.888Z,1892.00
2022-09-04T05:50:55.915Z,1912.00
2022-09-04T05:51:55.869Z,1932.00
2022-09-04T05:52:55.876Z,1964.00
2022-09-04T05:54:00.334Z,1988.00
2022-09-04T05:54:56.833Z,2012.00
2022-09-04T05:55:55.832Z,2036.00
2022-09-04T05:56:55.800Z,2060.00
2022-09-04T05:57:55.802Z,2088.00
2022-09-04T05:58:55.808Z,2116.00
2022-09-04T05:59:55.780Z,2140.00
2022-09-04T06:00:55.760Z,2172.00
2022-09-04T06:01:55.776Z,2204.00
2022-09-04T06:02:55.847Z,2232.00
2022-09-04T06:03:55.749Z,2264.00
2022-09-04T06:04:55.731Z,2296.00
2022-09-04T06:05:55.711Z,2328.00
2022-09-04T06:06:55.690Z,2352.00
2022-09-04T06:07:55.685Z,2384.00
2022-09-04T06:08:55.670Z,2416.00
2022-09-04T06:09:55.697Z,2436.00
2022-09-04T06:10:55.651Z,2460.00
2022-09-04T06:11:55.643Z,2472.00
2022-09-04T06:12:55.652Z,2484.00
2022-09-04T06:13:55.614Z,2488.00
2022-09-04T06:14:55.625Z,2488.00
2022-09-04T06:15:55.660Z,2488.00
2022-09-04T06:16:55.583Z,2488.00
2022-09-04T06:17:55.574Z,2484.00
2022-09-04T06:18:55.563Z,2476.00
2022-09-04T06:19:55.552Z,2480.00
2022-09-04T06:20:55.580Z,2476.00
2022-09-04T06:21:55.534Z,2472.00
2022-09-04T06:22:57.065Z,2464.00
2022-09-04T06:23:55.514Z,2460.00
2022-09-04T06:24:55.492Z,2456.00
2022-09-04T06:25:55.505Z,2456.00
2022-09-04T06:26:55.465Z,2460.00
2022-09-04T06:27:55.463Z,2464.00
2022-09-04T06:28:55.446Z,2472.00
2022-09-04T06:29:55.436Z,2476.00
2022-09-04T06:30:55.474Z,2484.00
2022-09-04T06:31:55.414Z,2492.00
2022-09-04T06:32:55.406Z,2500.00
2022-09-04T06:33:55.406Z,2504.00
2022-09-04T06:34:55.376Z,2508.00
2022-09-04T06:35:55.397Z,2520.00
2022-09-04T06:36:55.387Z,2524.00
2022-09-04T06:37:55.357Z,2536.00
2022-09-04T06:38:55.336Z,2548.00
2022-09-04T06:39:55.374Z,2560.00
2022-09-04T06:40:55.318Z,2572.00
2022-09-04T06:41:55.307Z,2588.00
2022-09-04T06:42:55.316Z,2596.00
2022-09-04T06:43:55.278Z,2608.00
2022-09-04T06:44:55.267Z,2628.00
2022-09-04T06:46:00.158Z,2632.00
2022-09-04T06:46:56.316Z,2636.00
2022-09-04T06:47:55.267Z,2640.00
2022-09-04T06:48:55.228Z,2656.00
2022-09-04T06:49:55.219Z,2644.00
2022-09-04T06:50:55.209Z,2652.00
2022-09-04T06:51:55.200Z,2652.00
2022-09-04T06:52:55.200Z,2656.00
2022-09-04T06:53:55.174Z,2656.00
2022-09-04T06:54:55.161Z,2656.00
2022-09-04T06:55:55.148Z,2656.00
2022-09-04T06:56:55.140Z,2652.00
2022-09-04T06:57:55.152Z,2652.00
2022-09-04T06:58:59.196Z,2656.00
2022-09-04T06:59:56.108Z,2656.00
2022-09-04T07:00:55.091Z,2664.00
2022-09-04T07:01:55.218Z,2652.00
2022-09-04T07:02:55.181Z,2660.00
2022-09-04T07:03:55.082Z,2668.00
2022-09-04T07:04:55.051Z,2672.00
2022-09-04T07:05:55.032Z,2704.00
2022-09-04T07:06:55.032Z,2720.00
2022-09-04T07:07:55.011Z,2732.00
2022-09-04T07:08:55.001Z,2736.00
2022-09-04T07:09:58.713Z,2732.00
2022-09-04T07:10:55.981Z,2736.00
2022-09-04T07:11:54.972Z,2736.00
2022-09-04T07:12:54.962Z,2720.00
2022-09-04T07:13:54.951Z,2716.00
2022-09-04T07:14:54.965Z,2736.00
2022-09-04T07:15:54.971Z,2756.00
2022-09-04T07:16:54.914Z,2764.00
2022-09-04T07:17:58.417Z,2772.00
2022-09-04T07:18:55.914Z,2788.00
2022-09-04T07:19:54.906Z,2796.00
2022-09-04T07:20:54.867Z,2796.00
2022-09-04T07:21:54.863Z,2812.00
2022-09-04T07:22:54.846Z,2840.00
2022-09-04T07:23:57.863Z,2860.00
2022-09-04T07:24:55.825Z,2868.00
2022-09-04T07:25:54.834Z,2884.00
2022-09-04T07:26:54.806Z,2904.00
2022-09-04T07:27:54.784Z,2920.00
2022-09-04T07:28:54.806Z,2932.00
2022-09-04T07:29:54.766Z,2960.00
2022-09-04T07:30:54.757Z,3008.00
2022-09-04T07:31:54.787Z,3028.00
2022-09-04T07:32:54.736Z,3040.00
2022-09-04T07:33:54.723Z,3060.00
2022-09-04T07:34:54.736Z,3084.00
2022-09-04T07:35:54.706Z,3092.00
2022-09-04T07:36:54.695Z,3108.00
2022-09-04T07:37:54.727Z,3116.00
2022-09-04T07:38:54.669Z,3124.00
2022-09-04T07:39:54.737Z,3132.00
2022-09-04T07:40:54.647Z,3140.00
2022-09-04T07:41:54.638Z,3140.00
2022-09-04T07:42:54.627Z,3136.00
2022-09-04T07:43:55.174Z,3140.00
2022-09-04T07:44:54.612Z,3144.00
2022-09-04T07:45:54.607Z,3144.00
2022-09-04T07:46:54.583Z,3140.00
2022-09-04T07:47:54.570Z,3144.00
2022-09-04T07:48:54.560Z,3140.00
2022-09-04T07:49:54.570Z,3136.00
2022-09-04T07:50:54.561Z,3136.00
2022-09-04T07:51:54.770Z,3136.00
2022-09-04T07:52:54.512Z,3128.00
2022-09-04T07:53:54.501Z,3120.00
2022-09-04T07:54:54.492Z,3116.00
2022-09-04T07:55:54.503Z,3104.00
2022-09-04T07:56:54.472Z,3108.00
2022-09-04T07:57:54.461Z,3120.00
2022-09-04T07:58:54.524Z,3120.00
2022-09-04T07:59:54.584Z,3116.00
2022-09-04T08:00:55.252Z,3112.00
2022-09-04T08:01:56.845Z,3108.00
2022-09-04T08:02:54.424Z,3104.00
2022-09-04T08:03:54.979Z,3108.00
2022-09-04T08:04:55.759Z,3104.00
2022-09-04T08:05:54.421Z,3096.00
2022-09-04T08:06:54.875Z,3104.00
2022-09-04T08:07:55.263Z,3104.00
2022-09-04T08:08:54.877Z,3100.00
2022-09-04T08:09:55.164Z,3100.00
2022-09-04T08:10:54.474Z,3108.00
2022-09-04T08:11:54.678Z,3112.00
2022-09-04T08:12:54.426Z,3124.00
2022-09-04T08:13:54.557Z,3144.00
2022-09-04T08:14:55.805Z,3168.00
2022-09-04T08:15:55.424Z,3188.00
2022-09-04T08:16:54.426Z,3216.00
2022-09-04T08:17:54.369Z,3240.00
2022-09-04T08:18:54.277Z,3272.00
2022-09-04T08:19:54.878Z,3308.00
2022-09-04T08:20:54.887Z,3336.00
2022-09-04T08:21:54.384Z,3364.00
2022-09-04T08:22:54.720Z,3388.00
2022-09-04T08:23:54.458Z,3412.00
2022-09-04T08:24:54.769Z,3436.00
2022-09-04T08:25:55.217Z,3456.00
2022-09-04T08:26:55.250Z,3480.00
2022-09-04T08:27:54.172Z,3508.00
2022-09-04T08:28:54.146Z,3544.00
2022-09-04T08:29:54.168Z,3568.00
2022-09-04T08:30:54.213Z,3592.00
2022-09-04T08:31:54.268Z,3576.00
2022-09-04T08:32:54.121Z,3580.00
2022-09-04T08:33:54.216Z,3592.00
2022-09-04T08:34:54.198Z,3632.00
2022-09-04T08:35:54.593Z,3672.00
2022-09-04T08:36:55.185Z,3720.00
2022-09-04T08:37:54.431Z,3752.00
2022-09-04T08:38:55.164Z,3796.00
2022-09-04T08:39:54.751Z,3832.00
2022-09-04T08:40:54.322Z,3868.00
2022-09-04T08:41:54.044Z,3892.00
2022-09-04T08:42:54.142Z,3912.00
2022-09-04T08:43:53.942Z,3928.00
2022-09-04T08:44:54.529Z,3944.00
2022-09-04T08:45:53.998Z,3952.00
2022-09-04T08:46:54.234Z,3976.00
2022-09-04T08:47:57.130Z,4000.00
2022-09-04T08:48:54.044Z,4024.00
2022-09-04T08:49:53.916Z,4048.00
2022-09-04T08:50:53.899Z,4072.00
2022-09-04T08:51:53.910Z,4108.00
2022-09-04T08:52:53.885Z,4136.00
2022-09-04T08:53:54.011Z,4168.00
2022-09-04T08:54:54.247Z,4204.00
2022-09-04T08:55:54.436Z,4240.00
2022-09-04T08:56:55.285Z,4276.00
2022-09-04T08:57:54.938Z,4320.00
2022-09-04T08:58:54.247Z,4360.00
2022-09-04T08:59:53.864Z,4396.00
2022-09-04T09:00:54.287Z,4452.00
2022-09-04T09:01:54.407Z,4508.00
2022-09-04T09:02:54.665Z,4576.00
2022-09-04T09:03:53.796Z,4628.00
2022-09-04T09:04:53.779Z,4688.00
2022-09-04T09:05:53.717Z,4724.00
2022-09-04T09:06:53.905Z,4760.00
2022-09-04T09:07:53.948Z,4796.00
2022-09-04T09:08:53.898Z,4804.00
2022-09-04T09:09:53.721Z,4824.00
2022-09-04T09:10:53.717Z,4852.00
2022-09-04T09:11:53.708Z,4876.00
2022-09-04T09:12:53.779Z,4864.00
2022-09-04T09:13:53.750Z,4848.00
2022-09-04T09:14:53.651Z,4832.00
2022-09-04T09:15:54.122Z,4836.00
2022-09-04T09:16:53.676Z,4836.00
2022-09-04T09:17:53.890Z,4872.00
2022-09-04T09:18:53.747Z,4980.00
2022-09-04T09:19:53.555Z,5016.00
2022-09-04T09:20:56.699Z,5092.00
2022-09-04T09:21:53.573Z,5080.00
2022-09-04T09:22:53.530Z,5028.00
2022-09-04T09:23:53.580Z,5044.00
2022-09-04T09:24:53.574Z,5028.00
2022-09-04T09:25:53.555Z,5076.00
2022-09-04T09:26:53.886Z,5200.00
2022-09-04T09:27:53.812Z,5224.00
2022-09-04T09:28:53.463Z,5228.00
2022-09-04T09:29:53.555Z,5220.00
2022-09-04T09:30:53.512Z,5292.00
2022-09-04T09:31:53.444Z,5268.00
2022-09-04T09:32:53.416Z,5176.00
2022-09-04T09:33:53.395Z,5048.00
2022-09-04T09:34:53.385Z,5040.00
2022-09-04T09:35:53.365Z,5028.00
2022-09-04T09:36:53.356Z,5188.00
2022-09-04T09:37:53.369Z,5252.00
2022-09-04T09:38:53.337Z,5304.00
2022-09-04T09:39:53.390Z,5360.00
2022-09-04T09:40:54.093Z,5400.00
2022-09-04T09:41:53.324Z,5420.00
2022-09-04T09:42:53.296Z,5472.00
2022-09-04T09:43:53.276Z,5488.00
2022-09-04T09:44:53.267Z,5496.00
2022-09-04T09:45:53.311Z,5552.00
2022-09-04T09:46:53.268Z,5608.00
2022-09-04T09:47:53.238Z,5672.00
2022-09-04T09:48:53.229Z,5764.00
2022-09-04T09:49:53.210Z,5908.00
2022-09-04T09:50:53.211Z,6036.00
2022-09-04T09:51:53.222Z,6156.00
2022-09-04T09:52:53.188Z,6288.00
2022-09-04T09:53:53.170Z,6404.00
2022-09-04T09:54:53.181Z,6532.00
2022-09-04T09:55:53.149Z,6644.00
2022-09-04T09:56:54.064Z,6780.00
2022-09-04T09:57:53.151Z,6912.00
2022-09-04T09:58:53.188Z,7024.00
2022-09-04T09:59:53.112Z,7132.00
2022-09-04T10:00:53.157Z,7308.00
2022-09-04T10:01:53.113Z,7508.00
2022-09-04T10:02:53.085Z,7684.00
2022-09-04T10:03:53.062Z,7780.00
2022-09-04T10:04:53.056Z,7980.00
2022-09-04T10:05:53.051Z,8096.00
2022-09-04T10:06:53.064Z,8224.00
2022-09-04T10:07:53.023Z,8368.00
2022-09-04T10:08:53.081Z,8572.00
2022-09-04T10:09:52.997Z,8696.00
2022-09-04T10:10:53.075Z,8800.00
2022-09-04T10:11:52.976Z,9088.00
2022-09-04T10:12:52.989Z,9288.00
2022-09-04T10:13:52.946Z,9504.00
2022-09-04T10:14:52.947Z,9712.00
2022-09-04T10:15:52.929Z,9932.00
2022-09-04T10:16:52.983Z,10072.00
2022-09-04T10:17:52.930Z,10208.00
2022-09-04T10:18:52.944Z,10316.00
2022-09-04T10:19:52.887Z,10332.00
2022-09-04T10:20:52.878Z,10568.00
2022-09-04T10:21:52.859Z,10792.00
2022-09-04T10:22:53.688Z,11716.00
2022-09-04T10:23:52.851Z,15600.00
2022-09-04T10:24:52.842Z,36448.00
2022-09-04T10:25:52.830Z,48320.00
2022-09-04T10:26:53.633Z,48096.00
2022-09-04T10:27:52.800Z,48640.00
2022-09-04T10:28:52.825Z,49920.00
2022-09-04T10:29:53.553Z,49984.00
2022-09-04T10:30:52.802Z,50144.00
2022-09-04T10:31:52.753Z,49568.00
2022-09-04T10:32:52.764Z,48128.00
2022-09-04T10:33:52.771Z,46688.00
2022-09-04T10:34:52.746Z,47616.00
2022-09-04T10:35:52.712Z,47520.00
2022-09-04T10:36:52.706Z,47456.00
2022-09-04T10:37:52.762Z,47424.00
2022-09-04T10:38:52.687Z,46912.00
2022-09-04T10:39:52.831Z,46688.00
2022-09-04T10:40:52.672Z,49824.00
2022-09-04T10:41:52.649Z,50784.00
2022-09-04T10:42:52.666Z,49728.00
2022-09-04T10:43:52.640Z,51072.00
2022-09-04T10:44:52.644Z,51296.00
2022-09-04T10:45:52.624Z,50528.00
2022-09-04T10:46:52.600Z,49216.00
2022-09-04T10:47:52.592Z,47520.00
2022-09-04T10:48:52.602Z,46944.00
2022-09-04T10:49:52.588Z,48512.00
2022-09-04T10:50:52.558Z,49888.00
2022-09-04T10:51:52.549Z,52000.00
2022-09-04T10:52:52.538Z,51744.00
2022-09-04T10:53:52.523Z,52480.00
2022-09-04T10:54:52.541Z,52256.00
2022-09-04T10:55:52.513Z,52768.00
2022-09-04T10:56:52.494Z,53728.00
2022-09-04T10:57:52.481Z,54272.00
2022-09-04T10:58:52.473Z,54272.00
2022-09-04T10:59:55.803Z,55456.00
2022-09-04T11:00:53.544Z,55232.00
2022-09-04T11:01:52.460Z,55616.00
2022-09-04T11:02:52.435Z,55040.00
2022-09-04T11:03:52.424Z,52896.00
2022-09-04T11:04:52.443Z,53248.00
2022-09-04T11:05:52.409Z,53856.00
2022-09-04T11:06:52.404Z,57152.00
2022-09-04T11:07:52.396Z,57184.00
2022-09-04T11:08:52.365Z,55712.00
2022-09-04T11:09:52.364Z,53280.00
2022-09-04T11:10:52.377Z,53984.00
2022-09-04T11:11:52.339Z,56000.00
2022-09-04T11:12:52.332Z,56736.00
2022-09-04T11:13:52.319Z,56544.00
2022-09-04T11:14:52.331Z,53696.00
2022-09-04T11:15:52.300Z,53568.00
2022-09-04T11:16:52.329Z,48576.00
2022-09-04T11:17:53.281Z,55808.00
2022-09-04T11:18:52.270Z,57408.00
2022-09-04T11:19:52.262Z,57536.00
2022-09-04T11:20:52.270Z,55456.00
2022-09-04T11:21:52.246Z,56960.00
2022-09-04T11:22:52.222Z,56800.00
2022-09-04T11:23:52.220Z,54976.00
2022-09-04T11:24:52.223Z,54976.00
2022-09-04T11:25:52.215Z,54144.00
2022-09-04T11:26:52.192Z,53024.00
2022-09-04T11:27:52.175Z,52800.00
2022-09-04T11:28:52.172Z,52544.00
2022-09-04T11:29:52.183Z,54528.00
2022-09-04T11:30:52.174Z,56224.00
2022-09-04T11:31:52.187Z,56672.00
2022-09-04T11:32:52.146Z,56672.00
2022-09-04T11:33:52.117Z,57376.00
2022-09-04T11:34:52.107Z,58144.00
2022-09-04T11:35:52.128Z,59552.00
2022-09-04T11:36:52.097Z,59104.00
2022-09-04T11:37:55.799Z,57568.00
2022-09-04T11:38:53.077Z,56352.00
2022-09-04T11:39:52.149Z,56576.00
2022-09-04T11:40:52.058Z,57888.00
2022-09-04T11:41:52.068Z,58848.00
2022-09-04T11:42:52.040Z,58304.00
2022-09-04T11:43:52.028Z,55584.00
2022-09-04T11:44:52.017Z,53856.00
2022-09-04T11:45:52.094Z,54080.00
2022-09-04T11:46:52.000Z,47552.00
2022-09-04T11:47:52.000Z,49216.00
2022-09-04T11:48:51.980Z,52800.00
2022-09-04T11:49:51.972Z,49568.00
2022-09-04T11:50:51.974Z,54208.00
2022-09-04T11:51:52.251Z,51296.00
2022-09-04T11:52:51.964Z,56608.00
2022-09-04T11:53:51.933Z,54336.00
2022-09-04T11:54:51.926Z,51744.00
2022-09-04T11:55:52.843Z,55360.00
2022-09-04T11:56:51.904Z,54208.00
2022-09-04T11:57:51.924Z,55264.00
2022-09-04T11:58:51.896Z,56576.00
2022-09-04T11:59:51.893Z,55872.00
2022-09-04T12:00:51.875Z,52672.00
2022-09-04T12:01:51.919Z,49664.00
2022-09-04T12:02:51.858Z,50304.00
2022-09-04T12:03:51.913Z,50400.00
2022-09-04T12:04:51.841Z,52768.00
2022-09-04T12:05:51.837Z,53760.00
2022-09-04T12:06:51.818Z,52736.00
2022-09-04T12:07:51.839Z,50016.00
2022-09-04T12:08:51.806Z,50048.00
2022-09-04T12:09:51.817Z,51520.00
2022-09-04T12:10:51.800Z,51168.00
2022-09-04T12:11:51.780Z,51936.00
2022-09-04T12:12:51.791Z,50496.00
2022-09-04T12:13:52.553Z,51552.00
2022-09-04T12:14:51.759Z,48864.00
2022-09-04T12:15:51.812Z,52256.00
2022-09-04T12:16:51.811Z,51296.00
2022-09-04T12:17:52.533Z,51104.00
2022-09-04T12:18:51.714Z,47648.00
2022-09-04T12:19:51.703Z,45984.00
2022-09-04T12:20:51.693Z,38112.00
2022-09-04T12:21:51.687Z,40928.00
2022-09-04T12:22:51.684Z,50464.00
2022-09-04T12:23:51.696Z,48992.00
2022-09-04T12:24:51.655Z,47328.00
2022-09-04T12:25:51.665Z,50304.00
2022-09-04T12:26:53.620Z,51840.00
2022-09-04T12:27:51.635Z,51648.00